.
WxDataArchive / Data Records for 2014-07-02
2014-07-01 July 2014 2014-07-03

Data Records for Wednesday, 02 July 2014

Time	Temp	Chill	HIndex	Humid	Dewpt	 Wind 	HiWind	WindDir	Rain 	Barom
-----	----	-----	------	-----	-----	------	------	-------	-----	-----
00:00	75.3	75.3	77.3	65	62.7	0	3	292	0.00	29.769 
00:05	75.3	75.3	77.3	65	62.7	0	1	292	0.00	29.769 
00:10	75.1	75.1	77.1	66	62.9	0	1	292	0.00	29.769 
00:15	74.9	74.9	74.9	66	62.8	0	2	292	0.00	29.763 
00:20	74.7	74.7	74.7	67	63.0	0	1	292	0.00	29.763 
00:25	74.6	74.6	74.6	68	63.3	0	1	292	0.00	29.763 
00:30	74.4	74.4	74.4	68	63.1	0	1	292	0.00	29.770 
00:35	74.2	74.2	74.2	69	63.4	0	1	292	0.00	29.770 
00:40	74.0	74.0	74.0	69	63.2	0	1	292	0.00	29.770 
00:45	73.9	73.9	73.9	69	63.1	0	1	292	0.00	29.773 
00:50	73.7	73.7	73.7	69	62.9	0	1	292	0.00	29.773 
00:55	73.5	73.5	73.5	70	63.1	0	0	---	0.00	29.773 
01:00	73.5	73.5	73.5	70	63.1	0	0	---	0.00	29.774 
01:05	73.3	73.3	73.3	71	63.3	0	0	---	0.00	29.774 
01:10	73.2	73.2	73.2	71	63.2	0	0	---	0.00	29.774 
01:15	73.0	73.0	73.0	72	63.4	0	0	---	0.00	29.776 
01:20	72.8	72.8	72.8	73	63.6	0	0	---	0.00	29.776 
01:25	72.7	72.7	72.7	73	63.5	0	0	---	0.00	29.776 
01:30	72.5	72.5	72.5	74	63.7	0	0	---	0.00	29.776 
01:35	72.3	72.3	72.3	75	63.9	0	0	---	0.00	29.776 
01:40	72.1	72.1	72.1	75	63.7	0	0	---	0.00	29.776 
01:45	72.0	72.0	72.0	76	64.0	0	0	---	0.00	29.777 
01:50	71.8	71.8	71.8	77	64.2	0	0	---	0.00	29.777 
01:55	71.6	71.6	71.6	78	64.4	0	0	---	0.00	29.777 
02:00	71.5	71.5	71.5	78	64.3	0	0	---	0.00	29.777 
02:05	71.3	71.3	71.3	79	64.4	0	0	---	0.00	29.777 
02:10	71.1	71.1	71.1	80	64.6	0	0	---	0.00	29.777 
02:15	70.9	70.9	70.9	81	64.8	0	0	---	0.00	29.775 
02:20	70.8	70.8	70.8	81	64.7	0	0	---	0.00	29.775 
02:25	70.4	70.4	70.4	82	64.6	0	0	---	0.00	29.775 
02:30	70.4	70.4	70.4	82	64.6	0	0	---	0.00	29.775 
02:35	70.3	70.3	70.3	82	64.5	0	0	---	0.00	29.775 
02:40	70.1	70.1	70.1	83	64.7	0	0	---	0.00	29.775 
02:45	69.9	69.9	69.9	83	64.5	0	0	---	0.00	29.772 
02:50	69.8	69.8	69.8	83	64.4	0	0	---	0.00	29.772 
02:55	69.6	69.6	69.6	84	64.5	0	0	---	0.00	29.772 
03:00	69.4	69.4	69.4	84	64.3	0	0	---	0.00	29.772 
03:05	69.4	69.4	69.4	84	64.3	0	0	---	0.00	29.772 
03:10	69.3	69.3	69.3	84	64.2	0	0	---	0.00	29.772 
03:15	69.1	69.1	69.1	85	64.4	0	0	---	0.00	29.771 
03:20	69.1	69.1	69.1	85	64.4	0	0	---	0.00	29.771 
03:25	68.9	68.9	68.9	85	64.2	0	0	---	0.00	29.771 
03:30	68.9	68.9	68.9	85	64.2	0	0	---	0.00	29.774 
03:35	68.8	68.8	68.8	86	64.4	0	0	---	0.00	29.774 
03:40	68.8	68.8	68.8	86	64.4	0	0	---	0.00	29.774 
03:45	68.8	68.8	68.8	86	64.4	0	0	---	0.00	29.772 
03:50	68.6	68.6	68.6	86	64.2	0	0	---	0.00	29.772 
03:55	68.6	68.6	68.6	87	64.6	0	0	---	0.00	29.772 
04:00	68.8	68.8	68.8	87	64.8	0	0	---	0.00	29.770 
04:05	68.8	68.8	68.8	87	64.8	0	0	---	0.00	29.770 
04:10	68.8	68.8	68.8	87	64.8	0	0	---	0.00	29.770 
04:15	68.8	68.8	68.8	87	64.8	0	0	---	0.00	29.770 
04:20	68.6	68.6	68.6	87	64.6	0	0	---	0.00	29.770 
04:25	68.6	68.6	68.6	87	64.6	0	1	292	0.00	29.770 
04:30	68.6	68.6	68.6	87	64.6	0	0	---	0.00	29.771 
04:35	68.6	68.6	68.6	87	64.6	0	0	---	0.00	29.771 
04:40	68.6	68.6	68.6	87	64.6	0	0	---	0.00	29.771 
04:45	68.4	68.4	68.4	87	64.4	0	0	---	0.00	29.771 
04:50	68.4	68.4	68.4	87	64.4	0	1	292	0.00	29.771 
04:55	68.4	68.4	68.4	87	64.4	0	0	---	0.00	29.771 
05:00	68.4	68.4	68.4	87	64.4	0	1	292	0.00	29.770 
05:05	68.4	68.4	68.4	87	64.4	0	1	292	0.00	29.770 
05:10	68.3	68.3	68.3	87	64.3	0	0	---	0.00	29.770 
05:15	68.3	68.3	68.3	87	64.3	0	0	---	0.00	29.772 
05:20	68.3	68.3	68.3	87	64.3	0	1	292	0.00	29.772 
05:25	68.3	68.3	68.3	87	64.3	0	0	---	0.00	29.772 
05:30	68.3	68.3	68.3	87	64.3	0	1	292	0.00	29.774 
05:35	68.1	68.1	68.1	87	64.1	0	1	292	0.00	29.774 
05:40	68.1	68.1	68.1	87	64.1	0	1	292	0.00	29.774 
05:45	68.1	68.1	68.1	87	64.1	0	0	---	0.00	29.777 
05:50	68.1	68.1	68.1	87	64.1	0	2	292	0.00	29.777 
05:55	67.9	67.9	67.9	87	63.9	0	2	292	0.00	29.777 
06:00	68.1	68.1	68.1	87	64.1	0	1	292	0.00	29.784 
06:05	67.9	67.9	67.9	87	63.9	0	0	---	0.00	29.784 
06:10	67.9	67.9	67.9	87	63.9	0	1	292	0.00	29.784 
06:15	67.8	67.8	67.8	88	64.1	0	0	---	0.00	29.789 
06:20	67.8	67.8	67.8	88	64.1	0	0	---	0.00	29.789 
06:25	67.6	67.6	67.6	88	63.9	0	2	292	0.00	29.789 
06:30	67.6	67.6	67.6	88	63.9	0	0	---	0.00	29.789 
06:35	67.6	67.6	67.6	88	63.9	0	0	---	0.00	29.789 
06:40	67.6	67.6	67.6	88	63.9	0	1	292	0.00	29.789 
06:45	67.6	67.6	67.6	88	63.9	0	0	---	0.00	29.792 
06:50	67.6	67.6	67.6	88	63.9	0	1	292	0.00	29.792 
06:55	67.8	67.8	67.8	88	64.1	0	2	292	0.00	29.792 
07:00	67.8	67.8	67.8	88	64.1	0	1	292	0.00	29.798 
07:05	67.9	67.9	67.9	88	64.2	0	2	292	0.00	29.798 
07:10	67.9	67.9	67.9	87	63.9	0	2	292	0.00	29.798 
07:15	68.1	68.1	68.1	87	64.1	0	1	270	0.00	29.805 
07:20	68.1	68.1	68.1	87	64.1	0	1	270	0.00	29.805 
07:25	68.3	68.3	68.3	87	64.3	0	2	270	0.00	29.805 
07:30	68.4	68.4	68.4	86	64.0	0	2	270	0.00	29.808 
07:35	68.8	68.8	68.8	85	64.1	0	2	270	0.00	29.808 
07:40	69.1	69.1	69.1	85	64.4	0	1	270	0.00	29.808 
07:45	69.3	69.3	69.3	84	64.2	0	1	270	0.00	29.816 
07:50	69.6	69.6	69.6	83	64.2	0	2	270	0.00	29.816 
07:55	69.8	69.8	69.8	83	64.4	0	1	270	0.00	29.816 
08:00	70.1	70.1	70.1	82	64.3	0	3	270	0.00	29.820 
08:05	70.3	70.3	70.3	81	64.2	1	4	270	0.00	29.820 
08:10	70.3	70.3	70.3	80	63.8	1	4	292	0.00	29.820 
08:15	70.4	70.4	70.4	81	64.3	0	1	292	0.00	29.825 
08:20	70.6	70.6	70.6	80	64.1	0	2	292	0.00	29.825 
08:25	70.6	70.6	70.6	79	63.8	1	3	292	0.00	29.825 
08:30	70.8	70.8	70.8	79	64.0	1	4	292	0.00	29.830 
08:35	70.8	70.8	70.8	78	63.6	1	3	292	0.00	29.830 
08:40	70.9	70.9	70.9	78	63.7	1	3	292	0.00	29.830 
08:45	71.5	71.5	71.5	78	64.3	0	2	292	0.00	29.832 
08:50	71.6	71.6	71.6	77	64.0	1	3	292	0.00	29.832 
08:55	71.6	71.6	71.6	76	63.6	1	3	292	0.00	29.832 
09:00	71.6	71.6	71.6	76	63.6	1	4	292	0.00	29.836 
09:05	71.8	71.8	71.8	76	63.8	1	3	292	0.00	29.836 
09:10	72.1	72.1	72.1	76	64.1	1	3	292	0.00	29.836 
09:15	72.5	72.5	72.5	74	63.7	1	3	292	0.00	29.837 
09:20	72.5	72.5	72.5	74	63.7	1	3	292	0.00	29.837 
09:25	72.8	72.8	72.8	74	64.0	1	3	292	0.00	29.837 
09:30	73.0	73.0	73.0	75	64.6	1	3	292	0.00	29.841 
09:35	73.3	73.3	73.3	73	64.1	1	3	292	0.00	29.841 
09:40	73.3	73.3	73.3	71	63.3	1	3	292	0.00	29.841 
09:45	73.5	73.5	73.5	73	64.3	1	3	292	0.00	29.838 
09:50	73.3	73.3	73.3	71	63.3	1	4	292	0.00	29.838 
09:55	73.3	73.3	73.3	73	64.1	1	3	292	0.00	29.838 
10:00	73.2	73.2	73.2	71	63.2	2	4	292	0.00	29.838 
10:05	73.2	73.2	73.2	71	63.2	1	5	292	0.00	29.838 
10:10	73.5	73.5	73.5	69	62.7	1	3	292	0.00	29.838 
10:15	73.9	73.9	73.9	69	63.1	1	3	292	0.00	29.845 
10:20	74.0	74.0	74.0	69	63.2	1	4	292	0.00	29.845 
10:25	74.2	74.2	74.2	68	62.9	1	3	292	0.00	29.845 
10:30	74.4	74.4	74.4	67	62.7	1	3	292	0.00	29.852 
10:35	74.0	74.0	74.0	67	62.3	1	4	292	0.00	29.852 
10:40	73.9	73.9	73.9	65	61.4	1	4	292	0.00	29.852 
10:45	74.2	74.2	74.2	66	62.1	1	3	292	0.00	29.852 
10:50	74.2	74.2	74.2	64	61.2	1	4	292	0.00	29.852 
10:55	74.0	74.0	74.0	66	61.9	1	3	292	0.00	29.852 
11:00	74.4	74.4	74.4	66	62.3	0	3	292	0.00	29.852 
11:05	74.7	74.7	74.7	62	60.8	2	4	292	0.00	29.852 
11:10	74.6	74.6	74.6	62	60.7	2	5	292	0.00	29.852 
11:15	74.9	74.9	74.9	62	61.0	1	4	315	0.00	29.852 
11:20	75.1	75.1	77.3	62	61.2	1	4	292	0.00	29.852 
11:25	74.9	74.9	74.9	59	59.6	2	6	270	0.00	29.852 
11:30	74.9	74.9	74.9	58	59.1	1	6	292	0.00	29.853 
11:35	75.1	75.1	77.5	58	59.3	1	4	292	0.00	29.853 
11:40	74.6	74.6	74.6	59	59.3	2	4	270	0.00	29.853 
11:45	74.7	74.7	74.7	59	59.4	1	3	270	0.00	29.855 
11:50	74.4	74.4	74.4	60	59.6	2	5	270	0.00	29.855 
11:55	74.4	74.4	74.4	61	60.1	1	3	270	0.00	29.855 
12:00	74.4	74.4	74.4	61	60.1	3	6	270	0.00	29.857 
12:05	74.7	74.7	74.7	61	60.3	2	4	270	0.00	29.857 
12:10	75.1	75.1	77.4	60	60.2	2	5	270	0.00	29.857 
12:15	75.3	75.3	77.7	56	58.5	1	5	270	0.00	29.863 
12:20	75.6	75.6	77.8	56	58.8	1	4	292	0.00	29.863 
12:25	76.0	76.0	78.1	53	57.6	2	4	315	0.00	29.863 
12:30	76.1	76.1	78.1	54	58.2	2	4	292	0.00	29.865 
12:35	75.8	75.8	78.0	52	56.9	3	7	270	0.00	29.865 
12:40	75.3	75.3	77.7	52	56.4	3	9	270	0.00	29.865 
12:45	75.4	75.4	77.8	54	57.6	2	5	270	0.00	29.869 
12:50	76.0	76.0	78.1	53	57.6	1	4	292	0.00	29.869 
12:55	76.3	76.3	78.2	51	56.8	2	6	270	0.00	29.869 
13:00	76.5	76.5	78.3	50	56.5	3	6	292	0.00	29.866 
13:05	76.5	76.5	78.3	50	56.5	3	6	270	0.00	29.866 
13:10	76.8	76.8	78.5	51	57.3	2	4	270	0.00	29.866 
13:15	77.4	77.4	78.9	52	58.4	1	3	270	0.00	29.863 
13:20	77.4	77.4	78.9	51	57.8	1	4	270	0.00	29.863 
13:25	77.0	77.0	78.6	51	57.5	1	2	270	0.00	29.863 
13:30	76.3	76.3	78.2	51	56.8	2	7	270	0.00	29.867 
13:35	75.8	75.8	78.0	52	56.9	2	5	270	0.00	29.867 
13:40	75.4	75.4	77.8	53	57.1	2	4	270	0.00	29.867 
13:45	75.4	75.4	77.8	54	57.6	2	5	270	0.00	29.865 
13:50	76.0	76.0	78.1	53	57.6	1	4	292	0.00	29.865 
13:55	76.1	76.1	78.1	52	57.2	2	5	292	0.00	29.865 
14:00	76.5	76.5	78.4	52	57.5	1	5	292	0.00	29.864 
14:05	76.7	76.7	78.4	50	56.6	1	5	292	0.00	29.864 
14:10	76.7	76.7	78.4	51	57.2	1	3	248	0.00	29.864 
14:15	76.5	76.5	78.3	50	56.5	2	4	270	0.00	29.870 
14:20	76.5	76.5	78.3	51	57.0	1	5	270	0.00	29.870 
14:25	76.8	76.8	78.5	50	56.7	2	4	270	0.00	29.870 
14:30	76.8	76.8	78.5	50	56.7	2	6	270	0.00	29.868 
14:35	76.5	76.5	78.3	51	57.0	2	5	270	0.00	29.868 
14:40	76.8	76.8	78.5	52	57.8	2	6	270	0.00	29.868 
14:45	76.7	76.7	78.4	51	57.2	2	7	270	0.00	29.871 
14:50	76.8	76.8	78.5	52	57.8	2	4	270	0.00	29.871 
14:55	76.7	76.7	78.5	53	58.3	2	4	292	0.00	29.871 
15:00	76.0	76.0	78.1	51	56.5	3	6	270	0.00	29.873 
15:05	75.6	75.6	77.9	53	57.2	3	6	270	0.00	29.873 
15:10	75.4	75.4	77.8	54	57.6	1	4	270	0.00	29.873 
15:15	76.0	76.0	78.1	54	58.1	1	4	292	0.00	29.878 
15:20	76.0	76.0	78.1	54	58.1	1	3	292	0.00	29.878 
15:25	75.8	75.8	78.0	55	58.5	2	4	292	0.00	29.878 
15:30	76.0	76.0	78.1	55	58.6	1	4	292	0.00	29.879 
15:35	76.5	76.5	78.4	54	58.6	1	5	292	0.00	29.879 
15:40	76.0	76.0	78.1	54	58.1	1	3	292	0.00	29.879 
15:45	75.8	75.8	78.0	55	58.5	2	6	270	0.00	29.883 
15:50	75.8	75.8	78.0	54	57.9	1	3	270	0.00	29.883 
15:55	75.4	75.4	77.7	55	58.1	2	4	270	0.00	29.883 
16:00	75.6	75.6	77.9	54	57.8	2	5	270	0.00	29.887 
16:05	75.4	75.4	77.8	54	57.6	2	5	270	0.00	29.887 
16:10	75.3	75.3	77.7	56	58.5	1	4	270	0.00	29.887 
16:15	75.3	75.3	77.7	54	57.5	3	6	270	0.00	29.887 
16:20	74.9	74.9	74.9	56	58.1	3	6	270	0.00	29.887 
16:25	74.6	74.6	74.6	56	57.8	2	6	270	0.00	29.887 
16:30	74.7	74.7	74.7	56	57.9	2	6	270	0.00	29.887 
16:35	75.3	75.3	77.7	56	58.5	2	7	270	0.00	29.887 
16:40	75.6	75.6	77.9	54	57.8	4	6	270	0.00	29.887 
16:45	75.6	75.6	77.8	55	58.3	2	6	270	0.00	29.883 
16:50	75.8	75.8	77.9	56	59.0	1	4	292	0.00	29.883 
16:55	76.5	76.5	78.4	54	58.6	2	5	315	0.00	29.883 
17:00	76.3	76.3	78.3	54	58.4	3	7	292	0.00	29.882 
17:05	75.6	75.6	77.8	56	58.8	2	6	292	0.00	29.882 
17:10	75.4	75.4	77.7	56	58.6	3	6	270	0.00	29.882 
17:15	75.8	75.8	77.9	56	59.0	2	4	315	0.00	29.885 
17:20	75.4	75.4	77.7	56	58.6	2	5	270	0.00	29.885 
17:25	75.3	75.3	77.7	55	58.0	4	7	292	0.00	29.885 
17:30	75.1	75.1	77.6	56	58.3	3	6	270	0.00	29.889 
17:35	75.1	75.1	77.5	57	58.8	4	7	338	0.00	29.889 
17:40	75.3	75.3	77.6	57	59.0	2	7	338	0.00	29.889 
17:45	74.6	74.6	74.6	56	57.8	3	6	292	0.00	29.888 
17:50	74.6	74.6	74.6	58	58.8	2	4	292	0.00	29.888 
17:55	74.7	74.7	74.7	58	58.9	1	4	270	0.00	29.888 
18:00	74.2	74.2	74.2	57	58.0	3	6	292	0.00	29.889 
18:05	73.5	73.5	73.5	59	58.3	3	7	315	0.00	29.889 
18:10	74.0	74.0	74.0	59	58.7	2	6	292	0.00	29.889 
18:15	74.0	74.0	74.0	58	58.3	3	8	270	0.00	29.891 
18:20	73.5	73.5	73.5	58	57.8	3	6	270	0.00	29.891 
18:25	73.3	73.3	73.3	58	57.6	2	5	315	0.00	29.891 
18:30	73.7	73.7	73.7	57	57.5	3	9	270	0.00	29.890 
18:35	74.0	74.0	74.0	59	58.7	2	5	270	0.00	29.890 
18:40	73.9	73.9	73.9	57	57.7	3	9	270	0.00	29.890 
18:45	73.5	73.5	73.5	55	56.3	3	6	292	0.00	29.892 
18:50	73.3	73.3	73.3	56	56.6	3	6	292	0.00	29.892 
18:55	73.0	73.0	73.0	56	56.4	3	9	292	0.00	29.892 
19:00	73.0	73.0	73.0	58	57.3	2	6	315	0.00	29.894 
19:05	72.7	72.7	72.7	57	56.6	2	5	270	0.00	29.894 
19:10	72.3	72.3	72.3	58	56.7	2	4	270	0.00	29.894 
19:15	72.3	72.3	72.3	59	57.2	2	6	315	0.00	29.901 
19:20	72.3	72.3	72.3	58	56.7	3	7	270	0.00	29.901 
19:25	72.5	72.5	72.5	58	56.9	2	6	315	0.00	29.901 
19:30	72.5	72.5	72.5	58	56.9	3	7	270	0.00	29.904 
19:35	72.3	72.3	72.3	59	57.2	2	5	292	0.00	29.904 
19:40	72.3	72.3	72.3	58	56.7	2	4	292	0.00	29.904 
19:45	72.3	72.3	72.3	58	56.7	1	4	270	0.00	29.905 
19:50	72.1	72.1	72.1	58	56.5	2	6	292	0.00	29.905 
19:55	71.8	71.8	71.8	58	56.2	2	6	270	0.00	29.905 
20:00	71.5	71.5	71.5	59	56.4	2	6	292	0.00	29.907 
20:05	71.3	71.3	71.3	60	56.7	2	5	292	0.00	29.907 
20:10	71.1	71.1	71.1	60	56.5	1	7	270	0.00	29.907 
20:15	70.9	70.9	70.9	60	56.3	1	3	270	0.00	29.911 
20:20	70.8	70.8	70.8	60	56.2	1	4	270	0.00	29.911 
20:25	70.6	70.6	70.6	59	55.6	2	4	270	0.00	29.911 
20:30	70.4	70.4	70.4	60	55.8	1	3	270	0.00	29.916 
20:35	70.3	70.3	70.3	60	55.7	1	4	270	0.00	29.916 
20:40	69.9	69.9	69.9	61	55.8	1	4	270	0.00	29.916 
20:45	69.6	69.6	69.6	61	55.5	1	3	270	0.00	29.921 
20:50	69.6	69.6	69.6	62	56.0	1	3	270	0.00	29.921 
20:55	69.4	69.4	69.4	62	55.8	1	3	270	0.00	29.921 
21:00	69.3	69.3	69.3	62	55.7	1	4	270	0.00	29.921 
21:05	69.1	69.1	69.1	62	55.5	0	2	270	0.00	29.921 
21:10	68.9	68.9	68.9	62	55.3	0	1	270	0.00	29.921 
21:15	68.8	68.8	68.8	63	55.7	0	1	270	0.00	29.921 
21:20	68.6	68.6	68.6	63	55.5	0	2	270	0.00	29.921 
21:25	68.4	68.4	68.4	63	55.3	0	2	270	0.00	29.921 
21:30	68.4	68.4	68.4	63	55.3	0	2	270	0.00	29.924 
21:35	68.3	68.3	68.3	63	55.2	0	2	270	0.00	29.924 
21:40	68.3	68.3	68.3	64	55.6	0	1	270	0.00	29.924 
21:45	68.1	68.1	68.1	64	55.5	0	1	270	0.00	29.923 
21:50	67.9	67.9	67.9	64	55.3	0	3	270	0.00	29.923 
21:55	67.8	67.8	67.8	65	55.6	0	1	270	0.00	29.923 
22:00	67.8	67.8	67.8	65	55.6	1	2	270	0.00	29.925 
22:05	67.8	67.8	67.8	65	55.6	0	2	270	0.00	29.925 
22:10	67.6	67.6	67.6	66	55.8	0	1	270	0.00	29.925 
22:15	67.6	67.6	67.6	65	55.4	1	4	292	0.00	29.938 
22:20	67.6	67.6	67.6	66	55.8	1	3	292	0.00	29.938 
22:25	67.3	67.3	67.3	65	55.1	1	4	270	0.00	29.938 
22:30	67.1	67.1	67.1	66	55.4	0	3	270	0.00	29.942 
22:35	66.9	66.9	66.9	66	55.2	0	4	292	0.00	29.942 
22:40	66.9	66.9	66.9	66	55.2	1	3	292	0.00	29.942 
22:45	66.8	66.8	66.8	66	55.1	0	3	292	0.00	29.940 
22:50	66.8	66.8	66.8	66	55.1	0	3	292	0.00	29.940 
22:55	66.6	66.6	66.6	66	54.9	0	3	292	0.00	29.940 
23:00	66.6	66.6	66.6	66	54.9	0	1	292	0.00	29.940 
23:05	66.6	66.6	66.6	67	55.3	0	3	292	0.00	29.940 
23:10	66.4	66.4	66.4	67	55.1	0	3	292	0.00	29.940 
23:15	66.4	66.4	66.4	67	55.1	1	2	292	0.00	29.945 
23:20	66.3	66.3	66.3	68	55.4	0	2	292	0.00	29.945 
23:25	66.3	66.3	66.3	68	55.4	0	2	292	0.00	29.945 
23:30	66.1	66.1	66.1	68	55.2	0	1	292	0.00	29.946 
23:35	66.1	66.1	66.1	69	55.6	0	2	292	0.00	29.946 
23:40	66.0	66.0	66.0	69	55.5	0	2	292	0.00	29.946 
23:45	66.0	66.0	66.0	69	55.5	0	2	292	0.00	29.942 
23:50	65.8	65.8	65.8	69	55.3	0	1	292	0.00	29.942 
23:55	65.8	65.8	65.8	69	55.3	0	2	292	0.00	29.942 

CoCoRaHS
IN-AL-39
A2 Web Hosting
Creative Commons License
GoDaddy
search engine by freefind advanced

loaded 2018-11-18 11:22:14 • last modified 2010-11-18 10:43:29
Privacy PolicyDisclaimer
• wx.awcolley.com is powered by PmWiki v.2002016 •
• all content (unless otherwise noted) © 2018 A W Colley